sensor_id;sensor_type;location;lat;lon;timestamp;temperature;humidity
8643;DHT22;4359;49.358;11.256;2023-03-24T00:02:21;10.60;99.90
8643;DHT22;4359;49.358;11.256;2023-03-24T00:04:47;10.60;99.90
8643;DHT22;4359;49.358;11.256;2023-03-24T00:07:15;10.50;99.90
8643;DHT22;4359;49.358;11.256;2023-03-24T00:09:45;10.40;99.90
8643;DHT22;4359;49.358;11.256;2023-03-24T00:12:12;10.40;99.90
8643;DHT22;4359;49.358;11.256;2023-03-24T00:14:39;10.40;99.90
8643;DHT22;4359;49.358;11.256;2023-03-24T00:17:06;10.30;99.90
8643;DHT22;4359;49.358;11.256;2023-03-24T00:19:34;10.30;99.90
8643;DHT22;4359;49.358;11.256;2023-03-24T00:22:06;10.30;99.90
8643;DHT22;4359;49.358;11.256;2023-03-24T00:24:33;10.30;99.90
8643;DHT22;4359;49.358;11.256;2023-03-24T00:26:59;10.30;99.90
8643;DHT22;4359;49.358;11.256;2023-03-24T00:29:28;10.20;99.90
8643;DHT22;4359;49.358;11.256;2023-03-24T00:31:54;10.20;99.90
8643;DHT22;4359;49.358;11.256;2023-03-24T00:34:20;10.20;99.90
8643;DHT22;4359;49.358;11.256;2023-03-24T00:36:47;10.20;99.90
8643;DHT22;4359;49.358;11.256;2023-03-24T00:39:13;10.10;99.90
8643;DHT22;4359;49.358;11.256;2023-03-24T00:41:42;10.10;99.90
8643;DHT22;4359;49.358;11.256;2023-03-24T00:44:10;10.10;99.90
8643;DHT22;4359;49.358;11.256;2023-03-24T00:46:49;10.10;99.90
8643;DHT22;4359;49.358;11.256;2023-03-24T00:49:24;10.10;99.90
8643;DHT22;4359;49.358;11.256;2023-03-24T00:52:18;10.10;99.90
8643;DHT22;4359;49.358;11.256;2023-03-24T00:54:45;10.10;99.90
8643;DHT22;4359;49.358;11.256;2023-03-24T00:57:13;10.10;99.90
8643;DHT22;4359;49.358;11.256;2023-03-24T00:59:40;10.20;99.90
8643;DHT22;4359;49.358;11.256;2023-03-24T01:02:23;10.20;99.90
8643;DHT22;4359;49.358;11.256;2023-03-24T01:04:57;10.20;99.90
8643;DHT22;4359;49.358;11.256;2023-03-24T01:07:25;10.40;99.90
8643;DHT22;4359;49.358;11.256;2023-03-24T01:09:52;10.40;99.90
8643;DHT22;4359;49.358;11.256;2023-03-24T01:12:33;10.50;99.90
8643;DHT22;4359;49.358;11.256;2023-03-24T01:15:03;10.60;99.90
8643;DHT22;4359;49.358;11.256;2023-03-24T01:17:30;10.60;99.90
8643;DHT22;4359;49.358;11.256;2023-03-24T01:19:56;10.60;99.90
8643;DHT22;4359;49.358;11.256;2023-03-24T01:22:27;10.60;99.90
8643;DHT22;4359;49.358;11.256;2023-03-24T01:24:53;10.60;99.90
8643;DHT22;4359;49.358;11.256;2023-03-24T01:27:18;10.60;99.90
8643;DHT22;4359;49.358;11.256;2023-03-24T01:29:44;10.50;99.90
8643;DHT22;4359;49.358;11.256;2023-03-24T01:32:10;10.50;99.90
8643;DHT22;4359;49.358;11.256;2023-03-24T01:34:36;10.50;99.90
8643;DHT22;4359;49.358;11.256;2023-03-24T01:37:03;10.50;99.90
8643;DHT22;4359;49.358;11.256;2023-03-24T01:39:28;10.40;99.90
8643;DHT22;4359;49.358;11.256;2023-03-24T01:41:54;10.40;99.90
8643;DHT22;4359;49.358;11.256;2023-03-24T01:44:35;10.40;99.90
8643;DHT22;4359;49.358;11.256;2023-03-24T01:47:06;10.40;99.90
8643;DHT22;4359;49.358;11.256;2023-03-24T01:49:36;10.40;99.90
8643;DHT22;4359;49.358;11.256;2023-03-24T01:52:06;10.50;99.90
8643;DHT22;4359;49.358;11.256;2023-03-24T01:54:51;10.50;99.90
8643;DHT22;4359;49.358;11.256;2023-03-24T01:57:25;10.60;99.90
8643;DHT22;4359;49.358;11.256;2023-03-24T01:59:54;10.70;99.90
8643;DHT22;4359;49.358;11.256;2023-03-24T02:02:21;10.80;99.90
8643;DHT22;4359;49.358;11.256;2023-03-24T02:04:53;10.90;99.90
8643;DHT22;4359;49.358;11.256;2023-03-24T02:10:12;11.00;99.90
8643;DHT22;4359;49.358;11.256;2023-03-24T02:12:41;11.00;99.90
8643;DHT22;4359;49.358;11.256;2023-03-24T02:15:08;11.00;99.90
8643;DHT22;4359;49.358;11.256;2023-03-24T02:17:59;11.00;99.90
8643;DHT22;4359;49.358;11.256;2023-03-24T02:28:53;10.90;99.90
8643;DHT22;4359;49.358;11.256;2023-03-24T02:42:56;10.90;99.90
8643;DHT22;4359;49.358;11.256;2023-03-24T02:45:35;10.80;99.90
8643;DHT22;4359;49.358;11.256;2023-03-24T02:53:17;10.90;99.90
8643;DHT22;4359;49.358;11.256;2023-03-24T02:56:00;11.00;99.90
8643;DHT22;4359;49.358;11.256;2023-03-24T02:58:50;11.00;99.90
8643;DHT22;4359;49.358;11.256;2023-03-24T03:01:28;11.00;99.90
8643;DHT22;4359;49.358;11.256;2023-03-24T03:04:16;11.00;99.90
8643;DHT22;4359;49.358;11.256;2023-03-24T03:06:47;11.10;99.90
8643;DHT22;4359;49.358;11.256;2023-03-24T03:09:16;11.00;99.90
8643;DHT22;4359;49.358;11.256;2023-03-24T03:11:47;10.90;99.90
8643;DHT22;4359;49.358;11.256;2023-03-24T03:14:23;10.90;99.90
8643;DHT22;4359;49.358;11.256;2023-03-24T03:17:06;11.00;99.90
8643;DHT22;4359;49.358;11.256;2023-03-24T03:19:40;11.00;99.90
8643;DHT22;4359;49.358;11.256;2023-03-24T03:22:12;11.10;99.90
8643;DHT22;4359;49.358;11.256;2023-03-24T03:24:41;11.20;99.90
8643;DHT22;4359;49.358;11.256;2023-03-24T03:27:17;11.30;99.90
8643;DHT22;4359;49.358;11.256;2023-03-24T03:29:46;11.40;99.90
8643;DHT22;4359;49.358;11.256;2023-03-24T03:32:18;11.40;99.90
8643;DHT22;4359;49.358;11.256;2023-03-24T03:34:51;11.40;99.90
8643;DHT22;4359;49.358;11.256;2023-03-24T03:37:54;11.30;99.90
8643;DHT22;4359;49.358;11.256;2023-03-24T03:40:35;11.20;99.90
8643;DHT22;4359;49.358;11.256;2023-03-24T03:43:03;11.10;99.90
8643;DHT22;4359;49.358;11.256;2023-03-24T03:45:29;11.10;99.90
8643;DHT22;4359;49.358;11.256;2023-03-24T03:47:55;11.10;99.90
8643;DHT22;4359;49.358;11.256;2023-03-24T03:50:21;11.10;99.90
8643;DHT22;4359;49.358;11.256;2023-03-24T03:52:47;11.20;99.90
8643;DHT22;4359;49.358;11.256;2023-03-24T03:55:14;11.20;99.90
8643;DHT22;4359;49.358;11.256;2023-03-24T03:57:40;11.20;99.90
8643;DHT22;4359;49.358;11.256;2023-03-24T04:00:10;11.10;99.90
8643;DHT22;4359;49.358;11.256;2023-03-24T04:05:29;11.30;99.90
8643;DHT22;4359;49.358;11.256;2023-03-24T04:26:34;11.20;99.90
8643;DHT22;4359;49.358;11.256;2023-03-24T04:31:47;11.10;99.90
8643;DHT22;4359;49.358;11.256;2023-03-24T04:34:23;11.20;99.90
8643;DHT22;4359;49.358;11.256;2023-03-24T04:37:12;11.30;99.90
8643;DHT22;4359;49.358;11.256;2023-03-24T04:39:41;11.40;99.90
8643;DHT22;4359;49.358;11.256;2023-03-24T04:42:16;11.40;99.90
8643;DHT22;4359;49.358;11.256;2023-03-24T04:44:43;11.40;99.90
8643;DHT22;4359;49.358;11.256;2023-03-24T04:47:10;11.40;99.90
8643;DHT22;4359;49.358;11.256;2023-03-24T04:49:39;11.30;99.90
8643;DHT22;4359;49.358;11.256;2023-03-24T04:52:06;11.30;99.90
8643;DHT22;4359;49.358;11.256;2023-03-24T04:54:32;11.30;99.90
8643;DHT22;4359;49.358;11.256;2023-03-24T04:56:59;11.30;99.90
8643;DHT22;4359;49.358;11.256;2023-03-24T04:59:27;11.40;99.90
8643;DHT22;4359;49.358;11.256;2023-03-24T05:01:53;11.40;99.90
8643;DHT22;4359;49.358;11.256;2023-03-24T05:04:21;11.50;99.90
8643;DHT22;4359;49.358;11.256;2023-03-24T05:06:47;11.50;99.90
8643;DHT22;4359;49.358;11.256;2023-03-24T05:09:23;11.60;99.90
8643;DHT22;4359;49.358;11.256;2023-03-24T05:11:50;11.70;99.90
8643;DHT22;4359;49.358;11.256;2023-03-24T05:14:16;11.70;99.90
8643;DHT22;4359;49.358;11.256;2023-03-24T05:16:42;11.70;99.90
8643;DHT22;4359;49.358;11.256;2023-03-24T05:19:09;11.80;99.90
8643;DHT22;4359;49.358;11.256;2023-03-24T05:21:35;11.90;99.90
8643;DHT22;4359;49.358;11.256;2023-03-24T05:24:01;12.00;99.90
8643;DHT22;4359;49.358;11.256;2023-03-24T05:26:26;12.00;99.90
8643;DHT22;4359;49.358;11.256;2023-03-24T05:28:52;12.00;99.90
8643;DHT22;4359;49.358;11.256;2023-03-24T05:31:18;12.10;99.90
8643;DHT22;4359;49.358;11.256;2023-03-24T05:33:44;12.10;99.90
8643;DHT22;4359;49.358;11.256;2023-03-24T05:36:11;12.20;99.90
8643;DHT22;4359;49.358;11.256;2023-03-24T05:38:36;12.30;99.90
8643;DHT22;4359;49.358;11.256;2023-03-24T05:41:02;12.40;99.90
8643;DHT22;4359;49.358;11.256;2023-03-24T05:43:28;12.40;99.90
8643;DHT22;4359;49.358;11.256;2023-03-24T05:45:54;12.40;99.90
8643;DHT22;4359;49.358;11.256;2023-03-24T05:48:20;12.50;99.90
8643;DHT22;4359;49.358;11.256;2023-03-24T05:50:46;12.50;99.90
8643;DHT22;4359;49.358;11.256;2023-03-24T05:53:12;12.60;99.90
8643;DHT22;4359;49.358;11.256;2023-03-24T05:55:38;12.50;99.90
8643;DHT22;4359;49.358;11.256;2023-03-24T05:58:05;12.50;99.90
8643;DHT22;4359;49.358;11.256;2023-03-24T06:00:31;12.50;99.90
8643;DHT22;4359;49.358;11.256;2023-03-24T06:02:58;12.50;99.90
8643;DHT22;4359;49.358;11.256;2023-03-24T06:05:24;12.70;99.90
8643;DHT22;4359;49.358;11.256;2023-03-24T06:07:50;12.60;99.90
8643;DHT22;4359;49.358;11.256;2023-03-24T06:10:16;12.70;99.90
8643;DHT22;4359;49.358;11.256;2023-03-24T06:12:44;12.80;99.90
8643;DHT22;4359;49.358;11.256;2023-03-24T06:15:11;12.80;99.90
8643;DHT22;4359;49.358;11.256;2023-03-24T06:17:42;12.80;99.90
8643;DHT22;4359;49.358;11.256;2023-03-24T06:20:09;12.80;99.90
8643;DHT22;4359;49.358;11.256;2023-03-24T06:22:41;12.80;99.90
8643;DHT22;4359;49.358;11.256;2023-03-24T06:25:07;12.80;99.90
8643;DHT22;4359;49.358;11.256;2023-03-24T06:27:34;12.80;99.90
8643;DHT22;4359;49.358;11.256;2023-03-24T06:30:00;12.80;99.90
8643;DHT22;4359;49.358;11.256;2023-03-24T06:32:27;12.80;99.90
8643;DHT22;4359;49.358;11.256;2023-03-24T06:34:53;12.70;99.90
8643;DHT22;4359;49.358;11.256;2023-03-24T06:37:21;12.60;99.90
8643;DHT22;4359;49.358;11.256;2023-03-24T06:39:47;12.60;99.90
8643;DHT22;4359;49.358;11.256;2023-03-24T06:42:13;12.50;99.90
8643;DHT22;4359;49.358;11.256;2023-03-24T06:44:39;12.40;99.90
8643;DHT22;4359;49.358;11.256;2023-03-24T06:47:05;12.40;99.90
8643;DHT22;4359;49.358;11.256;2023-03-24T06:49:31;12.40;99.90
8643;DHT22;4359;49.358;11.256;2023-03-24T06:51:59;12.30;99.90
8643;DHT22;4359;49.358;11.256;2023-03-24T06:54:26;12.30;99.90
8643;DHT22;4359;49.358;11.256;2023-03-24T06:56:51;12.30;99.90
8643;DHT22;4359;49.358;11.256;2023-03-24T06:59:17;12.20;99.90
8643;DHT22;4359;49.358;11.256;2023-03-24T07:01:50;12.20;99.90
8643;DHT22;4359;49.358;11.256;2023-03-24T07:04:16;12.20;99.90
8643;DHT22;4359;49.358;11.256;2023-03-24T07:06:42;12.30;99.90
8643;DHT22;4359;49.358;11.256;2023-03-24T07:09:10;12.50;99.90
8643;DHT22;4359;49.358;11.256;2023-03-24T07:11:37;12.50;99.90
8643;DHT22;4359;49.358;11.256;2023-03-24T07:14:03;12.50;99.90
8643;DHT22;4359;49.358;11.256;2023-03-24T07:16:29;12.60;99.90
8643;DHT22;4359;49.358;11.256;2023-03-24T07:18:54;12.60;99.90
8643;DHT22;4359;49.358;11.256;2023-03-24T07:21:20;12.60;99.90
8643;DHT22;4359;49.358;11.256;2023-03-24T07:23:46;12.70;99.90
8643;DHT22;4359;49.358;11.256;2023-03-24T07:26:11;12.80;99.90
8643;DHT22;4359;49.358;11.256;2023-03-24T07:28:37;12.90;99.90
8643;DHT22;4359;49.358;11.256;2023-03-24T07:31:04;12.90;99.90
8643;DHT22;4359;49.358;11.256;2023-03-24T07:33:31;13.00;99.90
8643;DHT22;4359;49.358;11.256;2023-03-24T07:35:59;13.20;99.90
8643;DHT22;4359;49.358;11.256;2023-03-24T07:38:25;13.20;99.90
8643;DHT22;4359;49.358;11.256;2023-03-24T07:40:51;13.20;99.90
8643;DHT22;4359;49.358;11.256;2023-03-24T07:43:16;13.30;99.90
8643;DHT22;4359;49.358;11.256;2023-03-24T07:45:44;13.30;99.90
8643;DHT22;4359;49.358;11.256;2023-03-24T07:48:10;13.20;99.90
8643;DHT22;4359;49.358;11.256;2023-03-24T07:50:36;13.10;99.90
8643;DHT22;4359;49.358;11.256;2023-03-24T07:53:02;13.10;99.90
8643;DHT22;4359;49.358;11.256;2023-03-24T07:55:28;13.20;99.90
8643;DHT22;4359;49.358;11.256;2023-03-24T07:57:54;13.20;99.90
8643;DHT22;4359;49.358;11.256;2023-03-24T08:00:20;13.40;99.90
8643;DHT22;4359;49.358;11.256;2023-03-24T08:02:51;13.60;99.90
8643;DHT22;4359;49.358;11.256;2023-03-24T08:05:21;13.80;99.90
8643;DHT22;4359;49.358;11.256;2023-03-24T08:07:49;13.90;99.90
8643;DHT22;4359;49.358;11.256;2023-03-24T08:10:19;13.90;99.90
8643;DHT22;4359;49.358;11.256;2023-03-24T08:12:46;14.10;99.90
8643;DHT22;4359;49.358;11.256;2023-03-24T08:15:12;14.10;99.90
8643;DHT22;4359;49.358;11.256;2023-03-24T08:17:38;14.20;99.90
8643;DHT22;4359;49.358;11.256;2023-03-24T08:20:05;14.30;99.90
8643;DHT22;4359;49.358;11.256;2023-03-24T08:22:37;14.40;99.90
8643;DHT22;4359;49.358;11.256;2023-03-24T08:25:05;14.40;99.90
8643;DHT22;4359;49.358;11.256;2023-03-24T08:27:32;14.40;99.90
8643;DHT22;4359;49.358;11.256;2023-03-24T08:29:58;14.50;99.90
8643;DHT22;4359;49.358;11.256;2023-03-24T08:32:24;14.50;99.90
8643;DHT22;4359;49.358;11.256;2023-03-24T08:34:50;14.40;99.90
8643;DHT22;4359;49.358;11.256;2023-03-24T08:37:16;14.30;99.90
8643;DHT22;4359;49.358;11.256;2023-03-24T08:39:42;14.20;99.90
8643;DHT22;4359;49.358;11.256;2023-03-24T08:42:08;14.10;99.90
8643;DHT22;4359;49.358;11.256;2023-03-24T08:44:33;13.90;99.90
8643;DHT22;4359;49.358;11.256;2023-03-24T08:47:02;13.90;99.90
8643;DHT22;4359;49.358;11.256;2023-03-24T08:49:28;14.00;99.90
8643;DHT22;4359;49.358;11.256;2023-03-24T08:51:53;13.90;99.90
8643;DHT22;4359;49.358;11.256;2023-03-24T08:54:19;13.90;99.90
8643;DHT22;4359;49.358;11.256;2023-03-24T08:56:47;13.90;99.90
8643;DHT22;4359;49.358;11.256;2023-03-24T08:59:13;13.80;99.90
8643;DHT22;4359;49.358;11.256;2023-03-24T09:01:39;13.80;99.90
8643;DHT22;4359;49.358;11.256;2023-03-24T09:04:05;13.70;99.90
8643;DHT22;4359;49.358;11.256;2023-03-24T09:06:30;13.60;99.90
8643;DHT22;4359;49.358;11.256;2023-03-24T09:08:57;13.50;99.90
8643;DHT22;4359;49.358;11.256;2023-03-24T09:11:23;13.50;99.90
8643;DHT22;4359;49.358;11.256;2023-03-24T09:13:49;13.40;99.90
8643;DHT22;4359;49.358;11.256;2023-03-24T09:16:15;13.40;99.90
8643;DHT22;4359;49.358;11.256;2023-03-24T09:18:42;13.40;99.90
8643;DHT22;4359;49.358;11.256;2023-03-24T09:21:08;13.20;99.90
8643;DHT22;4359;49.358;11.256;2023-03-24T09:23:34;13.10;99.90
8643;DHT22;4359;49.358;11.256;2023-03-24T09:26:00;13.00;99.90
8643;DHT22;4359;49.358;11.256;2023-03-24T09:28:26;12.90;99.90
8643;DHT22;4359;49.358;11.256;2023-03-24T09:30:57;12.80;99.90
8643;DHT22;4359;49.358;11.256;2023-03-24T09:33:24;12.70;99.90
8643;DHT22;4359;49.358;11.256;2023-03-24T09:35:55;12.60;99.90
8643;DHT22;4359;49.358;11.256;2023-03-24T09:38:21;12.60;99.90
8643;DHT22;4359;49.358;11.256;2023-03-24T09:40:50;12.50;99.90
8643;DHT22;4359;49.358;11.256;2023-03-24T09:45:53;12.50;99.90
8643;DHT22;4359;49.358;11.256;2023-03-24T09:48:47;12.50;99.90
8643;DHT22;4359;49.358;11.256;2023-03-24T09:51:28;12.40;99.90
8643;DHT22;4359;49.358;11.256;2023-03-24T09:54:07;12.50;99.90
8643;DHT22;4359;49.358;11.256;2023-03-24T09:56:38;12.50;99.90
8643;DHT22;4359;49.358;11.256;2023-03-24T09:59:07;12.60;99.90
8643;DHT22;4359;49.358;11.256;2023-03-24T10:01:36;12.70;99.90
8643;DHT22;4359;49.358;11.256;2023-03-24T10:04:03;12.80;99.90
8643;DHT22;4359;49.358;11.256;2023-03-24T10:06:51;12.90;99.90
8643;DHT22;4359;49.358;11.256;2023-03-24T10:09:27;13.00;99.90
8643;DHT22;4359;49.358;11.256;2023-03-24T10:18:29;13.50;99.90
8643;DHT22;4359;49.358;11.256;2023-03-24T10:21:16;13.70;99.90
8643;DHT22;4359;49.358;11.256;2023-03-24T10:23:56;13.80;99.90
8643;DHT22;4359;49.358;11.256;2023-03-24T10:26:45;13.80;99.90
8643;DHT22;4359;49.358;11.256;2023-03-24T10:29:28;14.00;99.90
8643;DHT22;4359;49.358;11.256;2023-03-24T10:32:18;14.10;99.90
8643;DHT22;4359;49.358;11.256;2023-03-24T10:34:58;14.20;99.90
8643;DHT22;4359;49.358;11.256;2023-03-24T10:37:28;14.00;99.90
8643;DHT22;4359;49.358;11.256;2023-03-24T10:39:54;14.00;99.90
8643;DHT22;4359;49.358;11.256;2023-03-24T10:42:25;13.80;99.90
8643;DHT22;4359;49.358;11.256;2023-03-24T10:44:52;13.70;99.90
8643;DHT22;4359;49.358;11.256;2023-03-24T10:47:23;13.80;99.90
8643;DHT22;4359;49.358;11.256;2023-03-24T10:49:56;13.80;99.90
8643;DHT22;4359;49.358;11.256;2023-03-24T10:52:23;13.70;99.90
8643;DHT22;4359;49.358;11.256;2023-03-24T10:55:03;13.70;99.90
8643;DHT22;4359;49.358;11.256;2023-03-24T10:57:31;13.70;99.90
8643;DHT22;4359;49.358;11.256;2023-03-24T11:00:00;13.70;99.90
8643;DHT22;4359;49.358;11.256;2023-03-24T11:02:34;13.80;99.90
8643;DHT22;4359;49.358;11.256;2023-03-24T11:05:15;13.70;99.90
8643;DHT22;4359;49.358;11.256;2023-03-24T11:07:44;13.60;99.90
8643;DHT22;4359;49.358;11.256;2023-03-24T11:12:59;13.70;99.90
8643;DHT22;4359;49.358;11.256;2023-03-24T11:15:33;13.70;99.90
8643;DHT22;4359;49.358;11.256;2023-03-24T11:18:13;13.70;99.90
8643;DHT22;4359;49.358;11.256;2023-03-24T11:23:15;13.60;99.90
8643;DHT22;4359;49.358;11.256;2023-03-24T11:25:53;13.70;99.90
8643;DHT22;4359;49.358;11.256;2023-03-24T11:28:26;13.70;99.90
8643;DHT22;4359;49.358;11.256;2023-03-24T11:30:53;13.70;99.90
8643;DHT22;4359;49.358;11.256;2023-03-24T11:33:31;13.70;99.90
8643;DHT22;4359;49.358;11.256;2023-03-24T11:41:34;14.10;99.90
8643;DHT22;4359;49.358;11.256;2023-03-24T11:44:23;14.50;99.90
8643;DHT22;4359;49.358;11.256;2023-03-24T11:46:58;14.90;99.90
8643;DHT22;4359;49.358;11.256;2023-03-24T11:49:30;15.00;99.90
8643;DHT22;4359;49.358;11.256;2023-03-24T11:51:56;15.00;99.90
8643;DHT22;4359;49.358;11.256;2023-03-24T11:54:34;14.90;99.90
8643;DHT22;4359;49.358;11.256;2023-03-24T11:57:08;14.90;99.90
8643;DHT22;4359;49.358;11.256;2023-03-24T11:59:54;14.80;99.90
8643;DHT22;4359;49.358;11.256;2023-03-24T12:03:00;14.80;99.90
8643;DHT22;4359;49.358;11.256;2023-03-24T12:05:40;15.10;99.90
8643;DHT22;4359;49.358;11.256;2023-03-24T12:09:07;15.30;99.90
8643;DHT22;4359;49.358;11.256;2023-03-24T12:13:53;16.00;99.90
8643;DHT22;4359;49.358;11.256;2023-03-24T12:17:00;16.30;99.90
8643;DHT22;4359;49.358;11.256;2023-03-24T12:19:32;16.30;99.90
8643;DHT22;4359;49.358;11.256;2023-03-24T12:22:26;16.20;99.90
8643;DHT22;4359;49.358;11.256;2023-03-24T12:25:28;16.00;99.90
8643;DHT22;4359;49.358;11.256;2023-03-24T12:33:12;14.80;99.90
8643;DHT22;4359;49.358;11.256;2023-03-24T12:36:00;14.60;99.90
8643;DHT22;4359;49.358;11.256;2023-03-24T12:49:41;14.80;99.90
8643;DHT22;4359;49.358;11.256;2023-03-24T12:57:47;15.80;99.90
8643;DHT22;4359;49.358;11.256;2023-03-24T13:00:26;16.40;99.90
8643;DHT22;4359;49.358;11.256;2023-03-24T13:03:03;16.90;99.90
8643;DHT22;4359;49.358;11.256;2023-03-24T13:05:32;16.80;99.90
8643;DHT22;4359;49.358;11.256;2023-03-24T13:08:03;16.60;99.90
8643;DHT22;4359;49.358;11.256;2023-03-24T13:10:33;16.40;99.90
8643;DHT22;4359;49.358;11.256;2023-03-24T13:13:32;16.30;99.90
8643;DHT22;4359;49.358;11.256;2023-03-24T13:16:04;16.30;99.90
8643;DHT22;4359;49.358;11.256;2023-03-24T13:18:40;16.10;99.90
8643;DHT22;4359;49.358;11.256;2023-03-24T13:21:18;16.00;99.90
8643;DHT22;4359;49.358;11.256;2023-03-24T13:24:07;16.10;99.90
8643;DHT22;4359;49.358;11.256;2023-03-24T13:29:42;16.40;99.90
8643;DHT22;4359;49.358;11.256;2023-03-24T13:34:57;17.10;99.90
8643;DHT22;4359;49.358;11.256;2023-03-24T13:37:32;17.30;99.90
8643;DHT22;4359;49.358;11.256;2023-03-24T13:40:00;17.10;99.90
8643;DHT22;4359;49.358;11.256;2023-03-24T13:42:30;17.00;99.90
8643;DHT22;4359;49.358;11.256;2023-03-24T13:44:58;16.80;99.90
8643;DHT22;4359;49.358;11.256;2023-03-24T13:47:24;16.70;99.90
8643;DHT22;4359;49.358;11.256;2023-03-24T13:50:12;16.50;99.90
8643;DHT22;4359;49.358;11.256;2023-03-24T13:52:43;16.40;99.90
8643;DHT22;4359;49.358;11.256;2023-03-24T13:55:17;16.20;99.90
8643;DHT22;4359;49.358;11.256;2023-03-24T13:57:58;16.20;99.90
8643;DHT22;4359;49.358;11.256;2023-03-24T14:00:26;16.00;99.90
8643;DHT22;4359;49.358;11.256;2023-03-24T14:03:10;15.80;99.90
8643;DHT22;4359;49.358;11.256;2023-03-24T14:05:55;15.70;99.90
8643;DHT22;4359;49.358;11.256;2023-03-24T14:08:39;15.50;99.90
8643;DHT22;4359;49.358;11.256;2023-03-24T14:11:39;15.40;99.90
8643;DHT22;4359;49.358;11.256;2023-03-24T14:17:10;15.30;99.90
8643;DHT22;4359;49.358;11.256;2023-03-24T14:19:43;15.00;99.90
8643;DHT22;4359;49.358;11.256;2023-03-24T14:22:21;14.40;99.90
8643;DHT22;4359;49.358;11.256;2023-03-24T14:27:46;13.70;99.90
8643;DHT22;4359;49.358;11.256;2023-03-24T14:30:20;13.60;99.90
8643;DHT22;4359;49.358;11.256;2023-03-24T14:32:52;13.60;99.90
8643;DHT22;4359;49.358;11.256;2023-03-24T14:36:00;13.50;99.90
8643;DHT22;4359;49.358;11.256;2023-03-24T14:38:34;13.50;99.90
8643;DHT22;4359;49.358;11.256;2023-03-24T14:41:07;13.40;99.90
8643;DHT22;4359;49.358;11.256;2023-03-24T14:48:52;13.30;99.90
8643;DHT22;4359;49.358;11.256;2023-03-24T14:57:05;13.30;99.90
8643;DHT22;4359;49.358;11.256;2023-03-24T15:02:25;13.10;99.90
8643;DHT22;4359;49.358;11.256;2023-03-24T15:05:30;13.00;99.90
8643;DHT22;4359;49.358;11.256;2023-03-24T15:08:19;12.90;99.90
8643;DHT22;4359;49.358;11.256;2023-03-24T15:11:07;12.90;99.90
8643;DHT22;4359;49.358;11.256;2023-03-24T15:18:34;12.70;99.90
8643;DHT22;4359;49.358;11.256;2023-03-24T15:21:21;12.50;99.90
8643;DHT22;4359;49.358;11.256;2023-03-24T15:23:47;12.10;99.90
8643;DHT22;4359;49.358;11.256;2023-03-24T15:26:14;11.80;99.90
8643;DHT22;4359;49.358;11.256;2023-03-24T15:28:40;11.70;99.90
8643;DHT22;4359;49.358;11.256;2023-03-24T15:31:06;11.60;99.90
8643;DHT22;4359;49.358;11.256;2023-03-24T15:33:42;11.50;99.90
8643;DHT22;4359;49.358;11.256;2023-03-24T15:36:15;11.40;99.90
8643;DHT22;4359;49.358;11.256;2023-03-24T15:38:49;11.40;99.90
8643;DHT22;4359;49.358;11.256;2023-03-24T15:41:21;11.40;99.90
8643;DHT22;4359;49.358;11.256;2023-03-24T15:43:50;11.40;99.90
8643;DHT22;4359;49.358;11.256;2023-03-24T15:46:28;11.40;99.90
8643;DHT22;4359;49.358;11.256;2023-03-24T15:48:57;11.40;99.90
8643;DHT22;4359;49.358;11.256;2023-03-24T15:51:59;11.50;99.90
8643;DHT22;4359;49.358;11.256;2023-03-24T15:57:16;11.40;99.90
8643;DHT22;4359;49.358;11.256;2023-03-24T16:02:33;11.20;99.90
8643;DHT22;4359;49.358;11.256;2023-03-24T16:05:10;11.20;99.90
8643;DHT22;4359;49.358;11.256;2023-03-24T16:07:38;11.00;99.90
8643;DHT22;4359;49.358;11.256;2023-03-24T16:10:25;10.80;99.90
8643;DHT22;4359;49.358;11.256;2023-03-24T16:12:52;10.70;99.90
8643;DHT22;4359;49.358;11.256;2023-03-24T16:15:18;10.60;99.90
8643;DHT22;4359;49.358;11.256;2023-03-24T16:17:44;10.50;99.90
8643;DHT22;4359;49.358;11.256;2023-03-24T16:20:19;10.60;99.90
8643;DHT22;4359;49.358;11.256;2023-03-24T16:22:45;10.50;99.90
8643;DHT22;4359;49.358;11.256;2023-03-24T16:25:11;10.40;99.90
8643;DHT22;4359;49.358;11.256;2023-03-24T16:27:37;10.30;99.90
8643;DHT22;4359;49.358;11.256;2023-03-24T16:30:16;10.30;99.90
8643;DHT22;4359;49.358;11.256;2023-03-24T16:32:43;10.30;99.90
8643;DHT22;4359;49.358;11.256;2023-03-24T16:35:09;10.30;99.90
8643;DHT22;4359;49.358;11.256;2023-03-24T16:37:35;10.30;99.90
8643;DHT22;4359;49.358;11.256;2023-03-24T16:40:01;10.30;99.90
8643;DHT22;4359;49.358;11.256;2023-03-24T16:42:29;10.30;99.90
8643;DHT22;4359;49.358;11.256;2023-03-24T16:44:54;10.30;99.90
8643;DHT22;4359;49.358;11.256;2023-03-24T16:47:20;10.40;99.90
8643;DHT22;4359;49.358;11.256;2023-03-24T16:49:46;10.40;99.90
8643;DHT22;4359;49.358;11.256;2023-03-24T16:52:12;10.40;99.90
8643;DHT22;4359;49.358;11.256;2023-03-24T16:54:37;10.50;99.90
8643;DHT22;4359;49.358;11.256;2023-03-24T16:57:04;10.50;99.90
8643;DHT22;4359;49.358;11.256;2023-03-24T16:59:29;10.50;99.90
8643;DHT22;4359;49.358;11.256;2023-03-24T17:02:00;10.50;99.90
8643;DHT22;4359;49.358;11.256;2023-03-24T17:04:29;10.60;99.90
8643;DHT22;4359;49.358;11.256;2023-03-24T17:06:58;10.50;99.90
8643;DHT22;4359;49.358;11.256;2023-03-24T17:09:24;10.40;99.90
8643;DHT22;4359;49.358;11.256;2023-03-24T17:11:55;10.40;99.90
8643;DHT22;4359;49.358;11.256;2023-03-24T17:14:21;10.40;99.90
8643;DHT22;4359;49.358;11.256;2023-03-24T17:16:47;10.30;99.90
8643;DHT22;4359;49.358;11.256;2023-03-24T17:19:17;10.50;99.90
8643;DHT22;4359;49.358;11.256;2023-03-24T17:24:10;10.40;99.90
8643;DHT22;4359;49.358;11.256;2023-03-24T17:26:38;10.40;99.90
8643;DHT22;4359;49.358;11.256;2023-03-24T17:29:05;10.40;99.90
8643;DHT22;4359;49.358;11.256;2023-03-24T17:31:31;10.50;99.90
8643;DHT22;4359;49.358;11.256;2023-03-24T17:33:57;10.40;99.90
8643;DHT22;4359;49.358;11.256;2023-03-24T17:36:23;10.50;99.90
8643;DHT22;4359;49.358;11.256;2023-03-24T17:38:49;10.50;99.90
8643;DHT22;4359;49.358;11.256;2023-03-24T17:41:16;10.50;99.90
8643;DHT22;4359;49.358;11.256;2023-03-24T17:43:44;10.50;99.90
8643;DHT22;4359;49.358;11.256;2023-03-24T17:46:09;10.50;99.90
8643;DHT22;4359;49.358;11.256;2023-03-24T17:48:35;10.50;99.90
8643;DHT22;4359;49.358;11.256;2023-03-24T17:51:01;10.50;99.90
8643;DHT22;4359;49.358;11.256;2023-03-24T17:53:27;10.50;99.90
8643;DHT22;4359;49.358;11.256;2023-03-24T17:55:56;10.50;99.90
8643;DHT22;4359;49.358;11.256;2023-03-24T17:58:23;10.50;99.90
8643;DHT22;4359;49.358;11.256;2023-03-24T18:00:49;10.40;99.90
8643;DHT22;4359;49.358;11.256;2023-03-24T18:03:15;10.40;99.90
8643;DHT22;4359;49.358;11.256;2023-03-24T18:05:41;10.40;99.90
8643;DHT22;4359;49.358;11.256;2023-03-24T18:08:06;10.30;99.90
8643;DHT22;4359;49.358;11.256;2023-03-24T18:10:33;10.30;99.90
8643;DHT22;4359;49.358;11.256;2023-03-24T18:13:04;10.40;99.90
8643;DHT22;4359;49.358;11.256;2023-03-24T18:15:31;10.40;99.90
8643;DHT22;4359;49.358;11.256;2023-03-24T18:17:57;10.40;99.90
8643;DHT22;4359;49.358;11.256;2023-03-24T18:20:22;10.40;99.90
8643;DHT22;4359;49.358;11.256;2023-03-24T18:22:48;10.30;99.90
8643;DHT22;4359;49.358;11.256;2023-03-24T18:25:14;10.30;99.90